Kezdőlap
METAR-TAF:

METAR-TAF

Repülőterek :

Oskemen, Kazahsztán

földrajzi szélesség: 50-02-10N, földrajzi hosszúság: 082-29-39E, magasság: 286 m

Jelenlegi meteorológiai megfigyelések

A jelentés 30 perccel ezelõtt készült, 15:30 UTC
Keleti szél 4 kt, kelet-északkeleti és dél-délkeleti között változik
Hőmérséklet 21°C
Páratartalom 83%
Légköri nyomás 1004 hPa
Látótávolság 10 km, vagy több

METAR: UASK 251530Z 09002MPS 060V150 9999 NSC 21/18 Q1004 NOSIG RMK QFE728/0970

Idő: 22:00 (16:00 UTC)

Előrejelzés

A jelentés 1 órával és 44 perccel ezelõtt készült, 14:16 UTC
Az előrejelzés 25-én 15 óra UTC és 25-én 24 óra UTC között érvényes
Kelet-délkeleti szél 6 kt
Látótávolság 10 km, vagy több
Szórványos felhőzet 10000 lábon
25-én 15 óra UTC és 25-én 21 óra UTC között ideiglenes
Különbözõ irányokból fújó szél 2 kt
Szórványos felhőzet 4000 lábon

TAF: UASK 251416Z 2515/2524 11003MPS 9999 SCT100 TEMPO 2515/2521 VRB01MPS SCT040

Meteorológiai megfigyelések és előrejelzések több, mint 4000 repülőtéren (METAR és TAF jelentéseket).

A térképen piros és sárga pontok jelzik az elérhető meteorológiai állomásokat.

Mozgassa az egeret a pont fölött, hogy megjelenjen az állomás neve.

Azután kattintson az időjárási megfigyelések és előrejelzések megtekintéséhez.

A térkép megváltoztatása: kattintson a fekete keresztel jelölt zöld gombra ráközelítéshez, a vonallal jelölt zöld gombra távolításhoz, vagy a zöld nyilakra a szomszédos térképek eléréséhez.


METAR-TAF: